Hauptseite
METAR-TAF:

METAR-TAF

Flughäfen :

Kunming, China

Flughafen Kunming-Changshui

Breite: 25-01N, Länge: 102-41E, Höhe: 1892 m

Beobachtung

Neuester Wetterbericht von vor 1 Stunde und 3 Minuten, um 13:00 UTC
Wind 8 kt aus Süd/Südwest
Temperatur 16°C
Luftfeuchtigkeit 88%
Luftdruck 1022 hPa
Sichtweite 10 km oder mehr
Leicht bewölkt in der Höhe von 2600 ft

METAR: ZPPP 201300Z 21004MPS 9999 FEW026 16/14 Q1022 NOSIG

Zeit: 22:03 (14:03 UTC)

Prognose

Neuester Wetterbericht von vor 6 Stunden und 59 Minuten, um 07:04 UTC
Gültige Prognose vom 20 um 12 UTC bis 21 um 12 UTC
Wind 8 kt aus Südwest
Sichtweite 10 km oder mehr
Aufgelockert bewölkt in der Höhe von 2600 ft

TAF: ZPPP 200704Z 2012/2112 23004MPS 9999 SCT026 TX21/2108Z TN12/2023Z

Wetterbeobachtungen und Prognosen von mehr als 4000 Flughäfen (METAR und TAF Bericht).

Die verfügbaren Stationen werden durch gelbe und rote Markierungen auf der Karte dargestellt.

Führen Sie die Maus auf sie, um den Namen der Station zu sehen.

Darauf klicken, um die Beobachtung von Wetterbeobachtungen und Prognosen zu sehen.

Um die Karte zu ändern : klicken Sie auf den grünen Tasten mit einem schwarzen Kreuz Zum Vergrößern, auf den grünen Button mit einem Gedankenstrich zu verkleinern, oder auf die grünen Pfeile für benachbarte Karten.


METAR-TAF: